Portada
METAR-TAF:

METAR-TAF

Aeropuertos :

Albacete, España

Aeropuerto de Albacete

latitud: 38-57N, longitud: 001-51W, altitud: 702 m

Observación

El informe se hizo hace 26 minutos, a las 18:00 UTC
Viento 6 kt del sur-sureste
Temperatura 23°C
Humedad 41%
Presión 1021 hPa
Visibilidad 10 km o más
sin nubes por debajo de 1500 m y sin presencia de cumulonimbus.

METAR: LEAB 231800Z 16006KT CAVOK 23/09 Q1021 NOSIG

Hora: 20:26 (18:26 UTC)

Pronóstico

El informe se hizo hace 1 hora y 26 minutos, a las 17:00 UTC
Pronóstico válido del 23 a las 18 UTC al 24 a las 03 UTC
Viento 9 kt del sur-sureste
Visibilidad 10 km o más
sin nubes por debajo de 1500 m y sin presencia de cumulonimbus.

TAF: LEAB 231700Z 2318/2403 16009KT CAVOK

Observaciones y pronósticos meteorológicos de más de 4000 aeropuertos (mensajes METAR y TAF).

Los puntos amarillos y rojos representan las estaciones disponibles.

Ponga el ratón en el punto deseado para ver el nombre de la estación.

Haga clic para ver las observaciones y los pronósticos meteorológicos.

Para cambiar el mapa : haga clic en los botones verdes con una cruz de color negro para hacer un zoom, en el botón verde con un guión para alejar o en las flechas verdes para mapas adyacentes.


METAR-TAF: